Time;durP1;ratioP1;P1;durP2;ratioP2;P2;SDS_P1;SDS_P2;PMS_P1;PMS_P2;Temp;Humidity;BMP_temperature;BMP_pressure;BME280_temperature;BME280_humidity;BME280_pressure;Samples;Min_cycle;Max_cycle;Signal;HPM_P1;HPM_P2
2023/05/07 00:01:53;;;;;;;14.48;5.03;;;13.10;99.90;;;;;;5034208;28;20057;-74
2023/05/07 00:04:19;;;;;;;11.52;4.60;;;13.20;99.90;;;;;;5034014;28;20115;-74
2023/05/07 00:06:45;;;;;;;12.10;4.22;;;13.20;99.90;;;;;;5015655;28;20033;-74
2023/05/07 00:09:10;;;;;;;11.45;4.43;;;13.20;99.90;;;;;;5034151;28;20033;-74
2023/05/07 00:11:36;;;;;;;12.00;4.63;;;13.20;99.90;;;;;;5015633;28;20021;-74
2023/05/07 00:14:02;;;;;;;11.65;4.90;;;13.30;99.90;;;;;;5033804;28;20471;-74
2023/05/07 00:16:27;;;;;;;11.43;4.50;;;13.30;99.90;;;;;;5015295;28;20032;-74
2023/05/07 00:18:53;;;;;;;12.52;4.35;;;13.30;99.90;;;;;;5052087;28;20524;-74
2023/05/07 00:21:19;;;;;;;10.63;4.85;;;13.30;99.90;;;;;;5035838;28;20033;-74
2023/05/07 00:23:45;;;;;;;12.43;4.97;;;13.20;99.90;;;;;;5052735;28;20025;-74
2023/05/07 00:26:10;;;;;;;15.13;4.93;;;13.20;99.90;;;;;;5035733;28;20390;-74
2023/05/07 00:28:36;;;;;;;9.45;4.80;;;13.10;99.90;;;;;;5053037;28;20053;-74
2023/05/07 00:31:02;;;;;;;10.63;5.03;;;13.10;99.90;;;;;;5053238;28;20025;-74
2023/05/07 00:33:28;;;;;;;10.57;4.32;;;13.00;99.90;;;;;;5053066;28;20459;-74
2023/05/07 00:35:56;;;;;;;14.75;5.40;;;13.10;99.90;;;;;;5053232;28;20032;-74
2023/05/07 00:38:22;;;;;;;13.20;5.03;;;13.10;99.90;;;;;;5053501;28;20033;-73
2023/05/07 00:40:47;;;;;;;10.80;4.53;;;13.10;99.90;;;;;;5052049;28;20446;-73
2023/05/07 00:43:13;;;;;;;11.95;4.63;;;13.20;99.90;;;;;;5053497;28;20033;-74
2023/05/07 00:45:39;;;;;;;12.98;4.95;;;13.20;99.90;;;;;;5034611;28;20032;-74
2023/05/07 00:48:05;;;;;;;11.90;4.60;;;13.20;99.90;;;;;;5052964;28;20463;-74
2023/05/07 00:50:32;;;;;;;9.48;4.43;;;13.30;99.90;;;;;;5052747;28;20029;-74
2023/05/07 00:52:58;;;;;;;9.68;4.43;;;13.30;99.90;;;;;;5053027;28;20084;-74
2023/05/07 00:55:24;;;;;;;8.88;4.93;;;13.40;99.90;;;;;;5034895;28;20039;-75
2023/05/07 00:57:51;;;;;;;9.15;5.13;;;13.40;99.90;;;;;;5053001;28;20127;-74
2023/05/07 01:00:17;;;;;;;15.45;5.15;;;13.40;99.90;;;;;;5052841;28;20029;-74
2023/05/07 01:02:43;;;;;;;13.10;4.72;;;13.50;99.90;;;;;;5052270;28;20065;-75
2023/05/07 01:05:13;;;;;;;8.98;4.45;;;13.50;99.90;;;;;;5053074;28;20122;-74
2023/05/07 01:07:41;;;;;;;10.05;4.32;;;13.40;99.90;;;;;;5052327;28;20036;-74
2023/05/07 01:10:09;;;;;;;11.10;4.30;;;13.50;99.90;;;;;;5052863;28;20029;-73
2023/05/07 01:12:36;;;;;;;14.52;4.75;;;13.50;99.90;;;;;;5052244;28;20040;-74
2023/05/07 01:15:04;;;;;;;10.40;4.43;;;13.50;99.90;;;;;;5052469;28;20029;-74
2023/05/07 01:17:33;;;;;;;9.82;4.10;;;13.50;99.90;;;;;;5052068;28;20033;-74
2023/05/07 01:19:58;;;;;;;10.52;3.72;;;13.60;99.90;;;;;;5052820;28;20031;-74
2023/05/07 01:22:34;;;;;;;11.07;4.10;;;13.50;99.90;;;;;;5052041;28;20105;-75
2023/05/07 01:25:01;;;;;;;12.63;4.63;;;13.50;99.90;;;;;;5052323;28;20113;-75
2023/05/07 01:27:28;;;;;;;10.25;4.30;;;13.50;99.90;;;;;;5051758;28;20025;-75
2023/05/07 01:29:53;;;;;;;9.02;4.00;;;13.50;99.90;;;;;;5034281;28;20049;-75
2023/05/07 01:32:24;;;;;;;12.70;4.20;;;13.50;99.90;;;;;;5052379;28;20482;-74
2023/05/07 01:34:52;;;;;;;9.65;3.97;;;13.60;99.90;;;;;;5051970;28;20025;-74
2023/05/07 01:37:18;;;;;;;9.68;4.63;;;13.50;99.90;;;;;;5052352;28;20029;-74
2023/05/07 01:39:44;;;;;;;9.63;3.95;;;13.50;99.90;;;;;;5051486;28;20589;-74
2023/05/07 01:42:10;;;;;;;8.93;4.25;;;13.50;99.90;;;;;;5051941;28;20047;-74
2023/05/07 01:44:36;;;;;;;12.18;4.60;;;13.40;99.90;;;;;;5051834;28;20458;-75
2023/05/07 01:47:03;;;;;;;11.00;4.28;;;13.40;99.90;;;;;;5052034;28;20033;-75
2023/05/07 01:49:30;;;;;;;7.30;3.70;;;13.40;99.90;;;;;;5051594;28;20029;-73
2023/05/07 01:51:56;;;;;;;7.30;4.10;;;13.40;99.90;;;;;;5051697;28;20025;-74
2023/05/07 01:54:27;;;;;;;10.15;4.18;;;13.40;99.90;;;;;;5051859;28;20481;-74
2023/05/07 01:56:53;;;;;;;9.23;4.15;;;13.30;99.90;;;;;;5052559;28;20031;-74
2023/05/07 01:59:19;;;;;;;10.25;4.15;;;13.30;99.90;;;;;;5052248;28;20378;-75
2023/05/07 02:01:45;;;;;;;12.75;4.53;;;13.20;99.90;;;;;;5051889;28;20017;-75
2023/05/07 02:04:11;;;;;;;8.55;4.50;;;13.20;99.90;;;;;;5052483;28;20455;-74
2023/05/07 02:06:36;;;;;;;8.65;3.85;;;13.20;99.90;;;;;;5051783;28;20112;-74
2023/05/07 02:09:02;;;;;;;10.98;4.40;;;13.10;99.90;;;;;;5052190;28;20032;-73
2023/05/07 02:11:28;;;;;;;8.95;4.30;;;13.10;99.90;;;;;;5051736;28;20032;-75
2023/05/07 02:13:53;;;;;;;7.13;3.95;;;13.10;99.90;;;;;;5052395;28;20025;-75
2023/05/07 02:16:19;;;;;;;8.65;4.05;;;13.10;99.90;;;;;;5052281;28;20056;-73
2023/05/07 02:18:45;;;;;;;10.23;4.32;;;13.00;99.90;;;;;;5051672;28;20040;-74
2023/05/07 02:21:11;;;;;;;9.98;4.20;;;13.00;99.90;;;;;;5052266;28;20450;-74
2023/05/07 02:23:37;;;;;;;10.13;3.83;;;12.90;99.90;;;;;;5051842;28;20029;-74
2023/05/07 02:26:04;;;;;;;12.07;3.80;;;12.90;99.90;;;;;;5051824;28;20036;-73
2023/05/07 02:28:29;;;;;;;10.77;3.60;;;12.80;99.90;;;;;;5051460;28;20057;-74
2023/05/07 02:30:55;;;;;;;11.25;3.78;;;12.80;99.90;;;;;;5052237;28;20040;-73
2023/05/07 02:33:21;;;;;;;7.53;3.33;;;12.80;99.90;;;;;;5051144;28;20036;-71
2023/05/07 02:35:47;;;;;;;6.72;3.75;;;12.70;99.90;;;;;;5032797;28;20020;-71
2023/05/07 02:38:14;;;;;;;9.07;3.78;;;12.70;99.90;;;;;;5050967;28;20053;-72
2023/05/07 02:40:39;;;;;;;8.90;3.75;;;12.60;99.90;;;;;;5051041;28;20033;-73
2023/05/07 02:43:06;;;;;;;7.03;3.50;;;12.70;99.90;;;;;;5051111;28;20079;-72
2023/05/07 02:45:32;;;;;;;6.38;3.53;;;12.60;99.90;;;;;;5050703;28;20025;-72
2023/05/07 02:47:58;;;;;;;8.02;3.78;;;12.60;99.90;;;;;;5051136;28;20404;-71
2023/05/07 02:50:25;;;;;;;8.68;3.88;;;12.50;99.90;;;;;;5050476;28;20079;-72
2023/05/07 02:52:50;;;;;;;10.05;3.97;;;12.50;99.90;;;;;;5050184;28;20052;-73
2023/05/07 02:55:16;;;;;;;11.02;3.95;;;12.50;99.90;;;;;;5050868;28;20430;-73
2023/05/07 02:57:42;;;;;;;10.45;4.00;;;12.40;99.90;;;;;;5032634;28;20036;-73
2023/05/07 03:00:13;;;;;;;9.70;4.10;;;12.30;99.90;;;;;;5051094;28;20025;-73
2023/05/07 03:02:38;;;;;;;10.40;4.32;;;12.30;99.90;;;;;;5050570;28;20451;-73
2023/05/07 03:05:05;;;;;;;10.27;4.25;;;12.20;99.90;;;;;;5054525;28;20040;-73
2023/05/07 03:07:30;;;;;;;10.45;4.20;;;12.10;99.90;;;;;;5054238;28;20028;-75
2023/05/07 03:09:56;;;;;;;7.28;3.90;;;12.10;99.90;;;;;;5054268;28;20029;-73
2023/05/07 03:12:22;;;;;;;9.90;3.80;;;12.00;99.90;;;;;;5054557;28;20068;-73
2023/05/07 03:14:47;;;;;;;8.77;4.50;;;12.00;99.90;;;;;;5053935;28;20048;-73
2023/05/07 03:17:13;;;;;;;9.68;4.97;;;11.90;99.90;;;;;;5036472;28;20140;-72
2023/05/07 03:19:39;;;;;;;5.78;3.67;;;11.90;99.90;;;;;;5054014;28;20152;-73
2023/05/07 03:22:05;;;;;;;10.48;4.50;;;11.90;99.90;;;;;;5036531;28;20446;-73
2023/05/07 03:24:30;;;;;;;8.30;4.30;;;11.80;99.90;;;;;;5054421;28;20021;-75
2023/05/07 03:26:57;;;;;;;10.20;4.45;;;11.80;99.90;;;;;;5054065;28;20028;-72
2023/05/07 03:29:23;;;;;;;8.50;4.25;;;11.80;99.90;;;;;;5053585;28;20055;-73
2023/05/07 03:31:49;;;;;;;10.75;4.47;;;11.70;99.90;;;;;;5053351;28;20056;-72
2023/05/07 03:34:16;;;;;;;10.43;4.65;;;11.70;99.90;;;;;;5054000;28;20068;-73
2023/05/07 03:36:42;;;;;;;10.23;5.00;;;11.60;99.90;;;;;;5053619;28;20048;-73
2023/05/07 03:39:08;;;;;;;14.00;5.55;;;11.60;99.90;;;;;;5053501;28;20471;-73
2023/05/07 03:41:34;;;;;;;13.40;5.18;;;11.50;99.90;;;;;;5053130;28;20028;-73
2023/05/07 03:44:00;;;;;;;14.25;5.07;;;11.50;99.90;;;;;;5053751;28;20033;-72
2023/05/07 03:46:26;;;;;;;10.52;4.93;;;11.40;99.90;;;;;;5035967;28;20025;-73
2023/05/07 03:48:52;;;;;;;8.65;5.35;;;11.40;99.90;;;;;;5053443;28;20138;-73
2023/05/07 03:51:17;;;;;;;11.60;4.95;;;11.30;99.90;;;;;;5053612;28;20036;-73
2023/05/07 03:53:43;;;;;;;9.57;4.75;;;11.20;99.90;;;;;;5053493;28;20025;-72
2023/05/07 03:56:09;;;;;;;10.32;5.10;;;11.20;99.90;;;;;;5054056;28;20029;-73
2023/05/07 03:58:35;;;;;;;13.82;4.88;;;11.10;99.90;;;;;;5053184;28;20125;-73
2023/05/07 04:01:00;;;;;;;15.18;5.50;;;11.00;99.90;;;;;;5053526;28;20040;-73
2023/05/07 04:03:26;;;;;;;11.13;5.00;;;10.90;99.90;;;;;;5053300;28;20087;-73
2023/05/07 04:05:52;;;;;;;8.82;5.60;;;10.90;99.90;;;;;;5053241;28;20025;-73
2023/05/07 04:08:18;;;;;;;9.68;4.85;;;10.90;99.90;;;;;;5053065;28;20497;-73
2023/05/07 04:10:43;;;;;;;8.05;4.75;;;10.80;99.90;;;;;;5053009;28;20028;-72
2023/05/07 04:13:09;;;;;;;9.82;4.90;;;10.80;99.90;;;;;;5053732;28;20481;-73
2023/05/07 04:15:36;;;;;;;8.63;5.35;;;10.80;99.90;;;;;;5052624;28;20025;-74
2023/05/07 04:18:01;;;;;;;12.30;5.18;;;10.70;99.90;;;;;;5053385;28;20032;-72
2023/05/07 04:20:27;;;;;;;14.23;5.80;;;10.70;99.90;;;;;;5053282;28;20029;-72
2023/05/07 04:22:53;;;;;;;11.57;5.53;;;10.70;99.90;;;;;;5052916;28;20021;-72
2023/05/07 04:25:18;;;;;;;12.98;5.80;;;10.70;99.90;;;;;;5053255;28;20468;-72
2023/05/07 04:27:44;;;;;;;10.77;5.13;;;10.70;99.90;;;;;;5052714;28;20029;-73
2023/05/07 04:30:11;;;;;;;11.90;5.68;;;10.70;99.90;;;;;;5053289;28;20097;-73
2023/05/07 04:32:37;;;;;;;10.48;5.32;;;10.70;99.90;;;;;;5052810;28;20052;-73
2023/05/07 04:35:03;;;;;;;11.05;5.80;;;10.70;99.90;;;;;;5052774;28;20033;-73
2023/05/07 04:37:29;;;;;;;10.20;5.90;;;10.80;99.90;;;;;;5052875;28;20025;-73
2023/05/07 04:39:54;;;;;;;9.50;5.30;;;10.70;99.90;;;;;;5052330;28;20106;-73
2023/05/07 04:42:20;;;;;;;11.10;5.22;;;10.80;99.90;;;;;;5052959;28;20024;-72
2023/05/07 04:44:46;;;;;;;10.27;5.07;;;10.80;99.90;;;;;;5052393;28;20411;-73
2023/05/07 04:47:12;;;;;;;10.38;4.97;;;10.80;99.90;;;;;;5052842;28;20044;-73
2023/05/07 04:49:40;;;;;;;9.05;5.20;;;10.80;99.90;;;;;;5034096;28;20434;-75
2023/05/07 04:52:06;;;;;;;14.93;6.30;;;10.80;99.90;;;;;;5052788;28;20047;-72
2023/05/07 04:54:32;;;;;;;16.60;6.18;;;10.90;99.90;;;;;;5052229;28;20418;-73
2023/05/07 04:56:58;;;;;;;11.25;5.93;;;10.90;99.90;;;;;;5052194;28;20029;-73
2023/05/07 04:59:23;;;;;;;12.00;5.53;;;10.90;99.90;;;;;;5052463;28;20115;-72
2023/05/07 05:01:49;;;;;;;13.43;5.65;;;10.90;99.90;;;;;;5051924;28;20104;-73
2023/05/07 05:04:15;;;;;;;11.40;5.50;;;10.90;99.90;;;;;;5052623;28;20067;-72
2023/05/07 05:06:41;;;;;;;11.48;5.65;;;10.90;99.90;;;;;;5052145;28;20025;-74
2023/05/07 05:09:06;;;;;;;10.23;4.95;;;11.00;99.90;;;;;;5052436;28;20469;-73
2023/05/07 05:11:32;;;;;;;9.10;4.32;;;11.10;99.90;;;;;;5052152;28;20032;-72
2023/05/07 05:14:00;;;;;;;12.00;5.05;;;11.20;99.90;;;;;;5051960;28;20021;-72
2023/05/07 05:16:26;;;;;;;9.30;4.80;;;11.20;99.90;;;;;;5052446;28;20057;-72
2023/05/07 05:18:53;;;;;;;12.27;5.88;;;11.30;99.90;;;;;;5051803;28;20083;-72
2023/05/07 05:21:20;;;;;;;12.45;5.40;;;11.30;99.90;;;;;;5052366;28;20411;-72
2023/05/07 05:23:45;;;;;;;8.63;5.40;;;11.30;99.90;;;;;;5051852;28;20033;-71
2023/05/07 05:26:11;;;;;;;11.30;5.60;;;11.30;99.90;;;;;;5033373;28;20035;-71
2023/05/07 05:28:37;;;;;;;9.88;5.45;;;11.30;99.90;;;;;;5051686;28;20041;-73
2023/05/07 05:31:02;;;;;;;12.00;5.57;;;11.30;99.90;;;;;;5051349;28;20021;-72
2023/05/07 05:33:28;;;;;;;11.57;5.53;;;11.30;99.90;;;;;;5052221;28;20044;-72
2023/05/07 05:35:54;;;;;;;8.18;5.28;;;11.30;99.90;;;;;;5051717;28;20029;-72
2023/05/07 05:38:20;;;;;;;12.63;5.40;;;11.30;99.90;;;;;;5052143;28;20036;-72
2023/05/07 05:40:46;;;;;;;9.88;4.97;;;11.30;99.90;;;;;;5051591;28;20094;-72
2023/05/07 05:43:13;;;;;;;8.40;4.50;;;11.30;99.90;;;;;;5017967;28;20032;-72
2023/05/07 05:45:39;;;;;;;9.35;5.10;;;11.40;99.90;;;;;;5051608;28;20041;-75
2023/05/07 05:48:05;;;;;;;9.20;5.15;;;11.50;99.90;;;;;;5052522;28;20097;-73
2023/05/07 05:50:31;;;;;;;8.20;4.55;;;11.60;99.90;;;;;;5051608;28;20111;-72
2023/05/07 05:52:57;;;;;;;9.88;5.35;;;11.70;99.90;;;;;;5051207;28;20520;-72
2023/05/07 05:55:23;;;;;;;8.00;4.78;;;11.90;99.90;;;;;;5051571;28;20025;-72
2023/05/07 05:57:49;;;;;;;10.05;4.78;;;12.00;99.90;;;;;;5050926;28;20464;-72
2023/05/07 06:00:16;;;;;;;6.50;4.28;;;12.20;99.90;;;;;;5051628;28;20049;-71
2023/05/07 06:02:42;;;;;;;7.22;4.65;;;12.30;99.90;;;;;;5051225;28;20555;-74
2023/05/07 06:05:09;;;;;;;8.60;4.50;;;12.40;99.90;;;;;;5051545;28;20044;-72
2023/05/07 06:07:34;;;;;;;7.13;4.82;;;12.60;99.90;;;;;;5033401;28;20031;-72
2023/05/07 06:10:01;;;;;;;5.93;4.15;;;12.70;99.90;;;;;;5050872;28;20020;-72
2023/05/07 06:12:26;;;;;;;9.70;4.60;;;12.90;99.90;;;;;;5051135;28;20029;-73
2023/05/07 06:14:52;;;;;;;6.30;3.63;;;13.10;99.90;;;;;;5050635;28;20052;-72
2023/05/07 06:17:18;;;;;;;7.50;4.13;;;13.20;99.90;;;;;;5050925;28;20332;-72
2023/05/07 06:19:44;;;;;;;7.40;3.83;;;13.30;99.90;;;;;;5050461;28;20032;-72
2023/05/07 06:22:10;;;;;;;7.13;3.42;;;13.50;99.90;;;;;;5050962;28;20128;-72
2023/05/07 06:24:35;;;;;;;5.57;3.55;;;13.60;99.90;;;;;;5050820;28;20096;-72
2023/05/07 06:27:01;;;;;;;6.95;3.10;;;13.80;99.90;;;;;;5050521;28;20592;-72
2023/05/07 06:29:27;;;;;;;6.93;3.40;;;13.80;99.90;;;;;;5050824;28;20394;-72
2023/05/07 06:31:53;;;;;;;9.68;3.70;;;13.80;99.90;;;;;;5050460;28;20137;-71
2023/05/07 06:34:19;;;;;;;8.30;3.40;;;13.80;99.90;;;;;;5051122;28;20336;-72
2023/05/07 06:36:44;;;;;;;6.40;3.53;;;13.90;99.90;;;;;;5050745;28;20029;-73
2023/05/07 06:39:10;;;;;;;6.60;3.40;;;14.00;99.90;;;;;;5036964;28;20064;-72
2023/05/07 06:41:36;;;;;;;8.40;3.58;;;14.20;99.90;;;;;;5055010;28;20336;-71
2023/05/07 06:44:03;;;;;;;5.32;3.42;;;14.50;99.90;;;;;;5036797;28;20584;-71
2023/05/07 06:46:29;;;;;;;7.05;3.20;;;14.60;99.90;;;;;;5054906;28;20105;-72
2023/05/07 06:48:56;;;;;;;4.53;2.95;;;14.90;99.90;;;;;;5054299;28;20450;-72
2023/05/07 06:51:22;;;;;;;8.18;2.88;;;15.10;99.90;;;;;;5054879;28;20063;-72
2023/05/07 06:53:48;;;;;;;5.53;2.85;;;15.40;99.90;;;;;;5054173;28;20025;-72
2023/05/07 06:56:14;;;;;;;4.47;2.90;;;15.50;99.90;;;;;;5055407;28;20025;-71
2023/05/07 06:58:39;;;;;;;4.18;2.63;;;15.50;99.90;;;;;;5056362;28;20377;-72
2023/05/07 07:01:05;;;;;;;6.57;3.25;;;15.40;99.90;;;;;;5056969;28;20056;-72
2023/05/07 07:03:31;;;;;;;6.43;3.08;;;15.30;99.90;;;;;;5056538;28;20064;-72
2023/05/07 07:05:57;;;;;;;6.22;2.55;;;15.10;99.90;;;;;;5055483;28;20040;-72
2023/05/07 07:08:22;;;;;;;4.65;2.63;;;15.00;99.90;;;;;;5055708;28;20032;-72
2023/05/07 07:10:48;;;;;;;5.45;2.92;;;14.80;99.90;;;;;;5055363;28;20366;-72
2023/05/07 07:13:14;;;;;;;7.63;3.40;;;14.60;99.90;;;;;;5056123;28;20060;-72
2023/05/07 07:15:40;;;;;;;6.18;3.00;;;14.60;99.90;;;;;;5055000;28;20029;-72
2023/05/07 07:18:06;;;;;;;5.55;2.85;;;14.50;99.90;;;;;;5036843;28;20112;-72
2023/05/07 07:20:32;;;;;;;4.63;2.53;;;14.40;99.90;;;;;;5055148;28;20028;-72
2023/05/07 07:22:57;;;;;;;5.93;2.70;;;14.40;99.90;;;;;;5037142;28;20465;-73
2023/05/07 07:25:23;;;;;;;6.20;2.95;;;14.30;99.90;;;;;;5055832;28;20090;-72
2023/05/07 07:27:49;;;;;;;6.18;2.90;;;14.40;99.90;;;;;;5037286;28;20032;-73
2023/05/07 07:30:15;;;;;;;5.88;2.50;;;14.50;99.90;;;;;;5055756;28;20332;-72
2023/05/07 07:32:41;;;;;;;9.55;3.35;;;14.60;99.90;;;;;;5055452;28;20082;-73
2023/05/07 07:35:07;;;;;;;5.88;2.50;;;14.90;99.90;;;;;;5055229;28;20025;-73
2023/05/07 07:37:33;;;;;;;4.60;2.40;;;15.20;99.90;;;;;;5055830;28;20040;-72
2023/05/07 07:40:00;;;;;;;3.90;2.65;;;15.40;99.90;;;;;;5037191;28;20033;-73
2023/05/07 07:42:26;;;;;;;5.45;2.60;;;15.60;99.90;;;;;;5055450;28;20025;-72
2023/05/07 07:44:52;;;;;;;4.80;2.45;;;15.60;99.90;;;;;;5055189;28;20116;-73
2023/05/07 07:47:17;;;;;;;4.28;2.03;;;15.60;99.90;;;;;;5055394;28;20120;-73
2023/05/07 07:49:43;;;;;;;4.05;1.90;;;15.80;99.90;;;;;;5053244;28;20528;-72
2023/05/07 07:52:09;;;;;;;5.85;2.30;;;15.90;99.90;;;;;;5053214;28;20028;-72
2023/05/07 07:54:35;;;;;;;5.53;2.30;;;16.10;99.90;;;;;;5035136;28;20032;-72
2023/05/07 07:57:01;;;;;;;4.55;2.28;;;16.30;99.90;;;;;;5053255;28;20036;-73
2023/05/07 07:59:27;;;;;;;5.88;2.40;;;16.50;99.90;;;;;;5053483;28;20097;-73
2023/05/07 08:01:55;;;;;;;5.95;2.25;;;16.70;99.90;;;;;;5052896;28;20029;-73
2023/05/07 08:04:21;;;;;;;4.10;2.72;;;16.50;99.90;;;;;;5053196;28;20029;-73
2023/05/07 08:06:47;;;;;;;4.20;2.53;;;16.50;99.90;;;;;;5052953;28;20036;-75
2023/05/07 08:09:12;;;;;;;6.65;2.97;;;16.60;99.90;;;;;;5052668;28;20033;-73
2023/05/07 08:11:38;;;;;;;5.25;2.80;;;16.60;99.90;;;;;;5053281;28;20460;-73
2023/05/07 08:14:04;;;;;;;6.80;3.10;;;16.60;99.90;;;;;;5052811;28;20104;-72
2023/05/07 08:16:30;;;;;;;3.13;2.70;;;16.60;99.90;;;;;;5053312;28;20114;-73
2023/05/07 08:18:56;;;;;;;6.45;2.75;;;16.60;99.90;;;;;;5035533;28;20057;-72
2023/05/07 08:21:23;;;;;;;5.05;3.05;;;16.80;99.90;;;;;;5053791;28;20474;-72
2023/05/07 08:23:48;;;;;;;3.40;2.47;;;16.70;99.90;;;;;;5036011;28;20448;-75
2023/05/07 08:26:14;;;;;;;3.55;2.50;;;16.70;99.90;;;;;;5034906;28;20085;-72
2023/05/07 08:28:40;;;;;;;5.30;2.80;;;16.80;99.90;;;;;;5052683;28;20148;-72
2023/05/07 08:31:06;;;;;;;8.57;3.20;;;16.80;99.90;;;;;;5036073;28;20490;-74
2023/05/07 08:33:32;;;;;;;5.82;2.95;;;16.80;99.90;;;;;;5053317;28;20029;-72
2023/05/07 08:35:58;;;;;;;7.32;2.88;;;16.90;99.90;;;;;;5052596;28;20359;-72
2023/05/07 08:38:23;;;;;;;8.68;2.53;;;17.00;99.90;;;;;;5052397;28;20400;-73
2023/05/07 08:40:49;;;;;;;5.18;2.50;;;17.00;99.90;;;;;;5052833;28;20135;-75
2023/05/07 08:43:16;;;;;;;4.55;2.28;;;17.00;99.90;;;;;;5052288;28;20029;-73
2023/05/07 08:45:45;;;;;;;4.18;2.67;;;17.10;99.90;;;;;;5052890;28;20407;-72
2023/05/07 08:48:25;;;;;;;6.28;2.55;;;17.20;99.90;;;;;;5052264;28;20021;-73
2023/05/07 08:50:51;;;;;;;4.63;2.45;;;17.30;99.90;;;;;;5052588;28;20029;-75
2023/05/07 08:53:17;;;;;;;6.38;2.70;;;17.50;99.90;;;;;;5052314;28;20455;-73
2023/05/07 08:55:43;;;;;;;6.15;2.00;;;17.60;99.90;;;;;;5052762;28;20025;-72
2023/05/07 08:58:08;;;;;;;5.28;2.42;;;17.60;99.90;;;;;;5052156;28;20033;-72
2023/05/07 09:00:37;;;;;;;5.97;2.38;;;17.50;99.90;;;;;;5051436;28;20025;-73
2023/05/07 09:03:02;;;;;;;3.63;1.70;;;17.50;99.90;;;;;;5051684;28;20050;-72
2023/05/07 09:05:28;;;;;;;6.80;1.75;;;17.40;99.90;;;;;;5051957;28;20099;-72
2023/05/07 09:07:55;;;;;;;4.53;1.70;;;17.30;99.90;;;;;;5051602;28;20032;-74
2023/05/07 09:10:21;;;;;;;3.67;1.80;;;17.30;99.90;;;;;;5052021;28;20032;-72
2023/05/07 09:12:47;;;;;;;3.97;2.22;;;17.20;99.90;;;;;;5051738;28;20028;-72
2023/05/07 09:15:14;;;;;;;4.22;2.28;;;17.10;99.90;;;;;;5051609;28;20109;-72
2023/05/07 09:17:42;;;;;;;4.00;2.38;;;17.00;99.90;;;;;;5051868;28;20036;-73
2023/05/07 09:20:08;;;;;;;3.85;1.88;;;16.90;99.90;;;;;;5051013;28;20115;-72
2023/05/07 09:22:36;;;;;;;4.00;1.80;;;16.90;99.90;;;;;;5051557;28;20530;-72
2023/05/07 09:25:02;;;;;;;3.33;1.90;;;16.80;99.90;;;;;;5052076;28;20037;-72
2023/05/07 09:27:28;;;;;;;4.13;1.92;;;16.90;99.90;;;;;;5051883;28;20025;-72
2023/05/07 09:29:53;;;;;;;1.98;1.27;;;16.90;99.90;;;;;;5051365;28;20136;-75
2023/05/07 09:32:19;;;;;;;3.42;1.70;;;17.10;99.90;;;;;;5051434;28;20025;-73
2023/05/07 09:34:45;;;;;;;1.60;1.35;;;17.20;99.90;;;;;;5051390;28;20028;-72
2023/05/07 09:37:13;;;;;;;3.55;1.77;;;17.20;99.90;;;;;;5051913;28;20036;-72
2023/05/07 09:39:46;;;;;;;2.95;1.50;;;17.30;99.90;;;;;;5051469;28;20033;-72
2023/05/07 09:42:14;;;;;;;3.38;1.70;;;17.50;99.90;;;;;;5051365;28;20029;-72
2023/05/07 09:44:40;;;;;;;3.75;1.63;;;17.60;99.90;;;;;;5052227;28;20466;-72
2023/05/07 09:47:07;;;;;;;3.42;1.25;;;17.70;99.90;;;;;;5051447;28;20024;-73
2023/05/07 09:49:42;;;;;;;1.52;1.33;;;18.00;99.90;;;;;;5052230;28;20056;-72
2023/05/07 09:52:10;;;;;;;1.58;1.15;;;18.10;99.90;;;;;;5051136;28;20112;-72
2023/05/07 09:54:37;;;;;;;3.38;1.02;;;18.40;99.90;;;;;;5051842;28;20376;-73
2023/05/07 09:57:04;;;;;;;3.55;1.30;;;18.60;99.90;;;;;;5051721;28;20455;-73
2023/05/07 09:59:32;;;;;;;4.18;1.50;;;18.60;99.90;;;;;;5052417;28;20033;-72
2023/05/07 10:01:59;;;;;;;3.25;1.20;;;18.70;99.90;;;;;;5052320;28;20111;-74
2023/05/07 10:04:29;;;;;;;3.55;1.77;;;18.70;99.90;;;;;;5052325;28;20029;-73
2023/05/07 10:06:55;;;;;;;4.75;1.67;;;18.80;99.90;;;;;;5051259;28;20025;-76
2023/05/07 10:09:22;;;;;;;2.97;1.70;;;18.80;99.90;;;;;;5051264;28;20036;-72
2023/05/07 10:11:51;;;;;;;4.32;1.70;;;18.70;99.90;;;;;;5051252;28;20056;-73
2023/05/07 10:14:17;;;;;;;2.67;1.48;;;18.60;99.90;;;;;;5051331;28;20070;-71
2023/05/07 10:16:44;;;;;;;2.70;1.83;;;18.60;99.90;;;;;;5051555;28;20040;-72
2023/05/07 10:19:10;;;;;;;3.65;1.70;;;18.50;99.90;;;;;;5051118;28;20041;-72
2023/05/07 10:21:37;;;;;;;3.13;1.70;;;18.30;99.90;;;;;;5051340;28;20051;-72
2023/05/07 10:24:13;;;;;;;3.30;1.70;;;18.00;99.90;;;;;;5050924;28;20036;-73
2023/05/07 10:26:45;;;;;;;3.15;2.00;;;18.00;99.90;;;;;;5051163;28;20025;-72
2023/05/07 10:29:41;;;;;;;3.90;2.17;;;18.00;99.90;;;;;;5050424;28;20052;-73
2023/05/07 10:32:46;;;;;;;5.47;1.42;;;18.10;99.90;;;;;;5050774;28;20033;-72
2023/05/07 10:35:19;;;;;;;4.68;1.67;;;18.40;99.90;;;;;;5050669;28;20135;-72
2023/05/07 10:37:45;;;;;;;5.15;1.48;;;18.40;99.90;;;;;;5050919;28;20059;-72
2023/05/07 10:40:12;;;;;;;4.85;1.45;;;18.40;99.90;;;;;;5050869;28;20033;-72
2023/05/07 10:42:38;;;;;;;5.65;1.58;;;18.40;99.90;;;;;;5051306;28;20021;-72
2023/05/07 10:45:16;;;;;;;3.15;1.67;;;18.50;99.90;;;;;;5050548;28;20468;-73
2023/05/07 10:48:08;;;;;;;3.53;1.40;;;18.80;99.90;;;;;;5051186;28;20033;-72
2023/05/07 10:50:34;;;;;;;3.55;1.40;;;19.20;99.90;;;;;;5051551;28;20056;-72
2023/05/07 10:53:18;;;;;;;3.30;1.30;;;19.20;99.90;;;;;;5050904;28;20065;-74
2023/05/07 10:55:48;;;;;;;7.32;1.13;;;19.20;99.90;;;;;;5050607;28;20033;-71
2023/05/07 10:58:27;;;;;;;7.13;1.67;;;19.40;99.90;;;;;;5033022;28;20064;-71
2023/05/07 11:01:00;;;;;;;4.50;1.67;;;19.10;99.90;;;;;;5051292;28;20104;-72
2023/05/07 11:03:27;;;;;;;3.38;1.60;;;18.70;99.90;;;;;;5050908;28;20459;-71
2023/05/07 11:06:14;;;;;;;4.38;1.40;;;18.40;99.90;;;;;;5051224;28;20032;-72
2023/05/07 11:08:53;;;;;;;2.75;1.38;;;18.30;99.90;;;;;;5051020;28;20441;-72
2023/05/07 11:11:19;;;;;;;2.38;1.30;;;18.30;99.90;;;;;;5050586;28;20107;-73
2023/05/07 11:13:49;;;;;;;4.15;1.58;;;18.20;99.90;;;;;;5050943;28;20167;-74
2023/05/07 11:16:22;;;;;;;3.53;1.30;;;18.20;99.90;;;;;;5052796;28;20023;-73
2023/05/07 11:18:54;;;;;;;3.30;1.50;;;18.20;99.90;;;;;;5052173;28;20025;-74
2023/05/07 11:21:33;;;;;;;6.30;1.65;;;18.10;99.90;;;;;;5033430;28;20256;-72
2023/05/07 11:23:59;;;;;;;3.08;1.73;;;18.00;99.90;;;;;;5051745;28;20157;-73
2023/05/07 11:26:26;;;;;;;4.13;1.83;;;18.00;99.90;;;;;;5054477;28;20118;-72
2023/05/07 11:28:53;;;;;;;5.60;2.03;;;18.00;99.90;;;;;;5055067;28;20200;-73
2023/05/07 11:31:28;;;;;;;4.47;1.70;;;18.10;99.90;;;;;;5054735;28;20123;-72
2023/05/07 11:33:54;;;;;;;2.00;1.58;;;18.30;99.90;;;;;;5054717;28;20477;-72
2023/05/07 11:36:23;;;;;;;5.85;1.90;;;18.60;99.90;;;;;;5054095;28;20465;-72
2023/05/07 11:38:49;;;;;;;5.53;2.17;;;18.60;99.90;;;;;;5054620;28;20052;-71
2023/05/07 11:41:16;;;;;;;4.57;2.00;;;18.30;99.90;;;;;;5054048;28;20025;-71
2023/05/07 11:43:58;;;;;;;3.67;1.63;;;18.20;99.90;;;;;;5054165;28;20354;-71
2023/05/07 11:46:24;;;;;;;3.78;2.35;;;18.20;99.90;;;;;;5054235;28;20021;-71
2023/05/07 11:48:50;;;;;;;4.90;2.30;;;18.10;99.90;;;;;;5054489;28;20033;-72
2023/05/07 11:51:20;;;;;;;5.53;2.17;;;18.10;99.90;;;;;;5054319;28;20036;-72
2023/05/07 11:53:46;;;;;;;4.82;2.00;;;17.70;99.90;;;;;;5056570;28;20029;-71
2023/05/07 11:56:14;;;;;;;4.22;1.90;;;17.80;99.90;;;;;;5055797;28;20087;-72
2023/05/07 11:58:41;;;;;;;3.60;2.10;;;17.80;99.90;;;;;;5056866;28;20029;-72
2023/05/07 12:01:11;;;;;;;5.18;2.30;;;17.80;99.90;;;;;;5055591;28;20056;-73
2023/05/07 12:03:37;;;;;;;4.95;2.10;;;17.70;99.90;;;;;;5055021;28;20477;-72
2023/05/07 12:06:06;;;;;;;3.65;1.92;;;17.50;99.90;;;;;;5054716;28;20021;-74
2023/05/07 12:08:32;;;;;;;5.13;1.98;;;17.60;99.90;;;;;;5055678;28;20036;-71
2023/05/07 12:10:58;;;;;;;5.03;2.95;;;17.60;99.90;;;;;;5055254;28;20112;-73
2023/05/07 12:13:25;;;;;;;2.78;2.10;;;17.60;99.90;;;;;;5055173;28;20130;-72
2023/05/07 12:15:52;;;;;;;5.60;2.45;;;17.60;99.90;;;;;;5054355;28;20080;-72
2023/05/07 12:18:19;;;;;;;7.47;3.03;;;17.80;99.90;;;;;;5054124;28;20378;-73
2023/05/07 12:20:45;;;;;;;4.45;2.10;;;17.90;99.90;;;;;;5052895;28;20061;-73
2023/05/07 12:23:11;;;;;;;2.67;1.92;;;17.90;99.90;;;;;;5052027;28;20087;-73
2023/05/07 12:25:38;;;;;;;4.43;1.92;;;18.10;99.90;;;;;;5053859;28;20029;-72
2023/05/07 12:28:05;;;;;;;4.65;1.52;;;18.00;99.90;;;;;;5053623;28;20037;-76
2023/05/07 12:30:38;;;;;;;1.33;1.00;;;18.10;99.90;;;;;;5054105;28;20055;-72
2023/05/07 12:33:04;;;;;;;0.93;0.88;;;18.30;99.90;;;;;;5035483;28;20132;-76
2023/05/07 12:35:31;;;;;;;1.33;0.90;;;18.50;99.90;;;;;;5053212;28;20032;-73
2023/05/07 12:37:59;;;;;;;1.40;1.10;;;18.80;99.90;;;;;;5054093;28;20099;-72
2023/05/07 12:40:45;;;;;;;2.83;0.95;;;19.10;99.90;;;;;;5053213;28;20160;-73
2023/05/07 12:43:24;;;;;;;2.53;0.90;;;19.60;99.90;;;;;;5053951;28;20394;-73